Time;durP1;ratioP1;P1;durP2;ratioP2;P2;SDS_P1;SDS_P2;PMS_P1;PMS_P2;Temp;Humidity;BMP_temperature;BMP_pressure;BME280_temperature;BME280_humidity;BME280_pressure;Samples;Min_cycle;Max_cycle;Signal;HPM_P1;HPM_P2
2021/10/28 00:14:33;;;;;;;66.33;32.50;;;;;;;;;;4423221;32;20361;-51
2021/10/28 00:17:01;;;;;;;59.90;33.03;;;;;;;;;;4435461;32;20237;-51
2021/10/28 00:19:27;;;;;;;71.60;33.10;;;;;;;;;;4427472;32;20256;-53
2021/10/28 00:21:54;;;;;;;63.60;31.33;;;;;;;;;;4435515;32;20612;-55
2021/10/28 00:24:19;;;;;;;65.73;31.47;;;;;;;;;;4432718;32;20245;-53
2021/10/28 00:26:47;;;;;;;61.50;30.50;;;;;;;;;;4435127;32;20278;-52
2021/10/28 00:29:16;;;;;;;67.13;33.43;;;;;;;;;;4426456;32;20575;-52
2021/10/28 00:31:43;;;;;;;56.70;28.70;;;;;;;;;;4430860;32;20253;-52
2021/10/28 00:34:10;;;;;;;64.70;29.90;;;;;;;;;;4427073;32;20305;-52
2021/10/28 00:36:37;;;;;;;52.73;27.30;;;;;;;;;;4434670;32;20260;-52
2021/10/28 00:39:05;;;;;;;53.33;27.57;;;;;;;;;;4431703;32;20300;-52
2021/10/28 00:41:31;;;;;;;54.97;28.13;;;;;;;;;;4434740;32;20228;-52
2021/10/28 00:43:58;;;;;;;53.77;26.97;;;;;;;;;;4435113;32;20276;-54
2021/10/28 00:46:27;;;;;;;54.93;27.90;;;;;;;;;;4433288;32;20304;-52
2021/10/28 00:48:52;;;;;;;59.47;26.53;;;;;;;;;;4434852;32;20376;-53
2021/10/28 00:51:20;;;;;;;47.07;27.23;;;;;;;;;;4433233;32;20311;-53
2021/10/28 00:53:46;;;;;;;46.40;26.93;;;;;;;;;;4435065;32;20256;-52
2021/10/28 00:56:13;;;;;;;46.57;25.07;;;;;;;;;;4434325;32;20407;-54
2021/10/28 00:58:39;;;;;;;46.93;25.80;;;;;;;;;;4434783;32;20318;-54
2021/10/28 01:01:06;;;;;;;37.03;24.23;;;;;;;;;;4433715;32;20528;-54
2021/10/28 01:03:33;;;;;;;49.23;24.03;;;;;;;;;;4435055;32;20239;-54
2021/10/28 01:05:59;;;;;;;46.67;23.50;;;;;;;;;;4433124;32;20209;-54
2021/10/28 01:08:26;;;;;;;44.27;25.27;;;;;;;;;;4422037;32;20325;-56
2021/10/28 01:10:52;;;;;;;55.20;26.70;;;;;;;;;;4433369;32;20597;-54
2021/10/28 01:13:20;;;;;;;47.80;24.43;;;;;;;;;;4434125;32;20620;-53
2021/10/28 01:15:49;;;;;;;47.73;27.20;;;;;;;;;;4434293;32;20217;-53
2021/10/28 01:18:16;;;;;;;46.27;26.17;;;;;;;;;;4434420;32;20326;-54
2021/10/28 01:20:47;;;;;;;48.43;25.80;;;;;;;;;;4434235;32;20240;-55
2021/10/28 01:23:15;;;;;;;53.93;27.67;;;;;;;;;;4434609;32;20232;-55
2021/10/28 01:25:49;;;;;;;56.23;30.63;;;;;;;;;;4434428;32;20278;-55
2021/10/28 01:28:15;;;;;;;62.87;30.47;;;;;;;;;;4434306;32;20275;-54
2021/10/28 01:30:46;;;;;;;57.67;30.47;;;;;;;;;;4434188;32;20235;-56
2021/10/28 01:33:11;;;;;;;61.67;29.50;;;;;;;;;;4434039;32;20788;-54
2021/10/28 01:35:37;;;;;;;63.00;30.03;;;;;;;;;;4434057;32;20296;-54
2021/10/28 01:38:03;;;;;;;58.93;30.43;;;;;;;;;;4434051;32;20291;-54
2021/10/28 01:40:28;;;;;;;70.33;29.17;;;;;;;;;;4433889;32;20640;-56
2021/10/28 01:42:54;;;;;;;49.10;27.73;;;;;;;;;;4433910;32;20308;-55
2021/10/28 01:45:20;;;;;;;54.27;29.60;;;;;;;;;;4434171;32;20284;-54
2021/10/28 01:47:46;;;;;;;54.63;29.20;;;;;;;;;;4434026;32;20235;-53
2021/10/28 01:50:12;;;;;;;54.47;27.80;;;;;;;;;;4432466;32;20284;-53
2021/10/28 01:52:39;;;;;;;46.33;26.90;;;;;;;;;;4433511;32;20348;-54
2021/10/28 01:55:12;;;;;;;43.60;23.23;;;;;;;;;;4433692;32;20300;-54
2021/10/28 01:57:39;;;;;;;46.80;23.90;;;;;;;;;;4434160;32;20228;-53
2021/10/28 02:00:12;;;;;;;43.57;22.43;;;;;;;;;;4433722;32;20209;-54
2021/10/28 02:02:38;;;;;;;46.17;25.00;;;;;;;;;;4428806;32;20302;-54
2021/10/28 02:05:05;;;;;;;48.10;25.43;;;;;;;;;;4419198;32;20704;-55
2021/10/28 02:07:31;;;;;;;54.17;28.73;;;;;;;;;;4426758;32;20264;-53
2021/10/28 02:09:56;;;;;;;61.53;30.77;;;;;;;;;;4433392;32;20259;-54
2021/10/28 02:12:23;;;;;;;67.30;32.30;;;;;;;;;;4420318;32;20362;-53
2021/10/28 02:14:48;;;;;;;51.93;28.43;;;;;;;;;;4431938;32;20244;-53
2021/10/28 02:17:14;;;;;;;43.30;23.50;;;;;;;;;;4433336;32;20725;-53
2021/10/28 02:19:39;;;;;;;47.37;24.83;;;;;;;;;;4433342;32;20283;-52
2021/10/28 02:22:05;;;;;;;50.43;26.53;;;;;;;;;;4433004;32;20306;-52
2021/10/28 02:24:30;;;;;;;43.63;24.40;;;;;;;;;;4432614;32;20324;-54
2021/10/28 02:26:56;;;;;;;43.70;24.07;;;;;;;;;;4433549;32;20225;-52
2021/10/28 02:29:22;;;;;;;47.27;26.63;;;;;;;;;;4433011;32;20280;-53
2021/10/28 02:31:47;;;;;;;51.60;25.93;;;;;;;;;;4433659;32;20304;-52
2021/10/28 02:34:13;;;;;;;56.20;27.70;;;;;;;;;;4431280;32;20303;-54
2021/10/28 02:36:39;;;;;;;68.60;30.87;;;;;;;;;;4432707;32;20547;-54
2021/10/28 02:39:04;;;;;;;58.27;28.23;;;;;;;;;;4433322;32;20294;-52
2021/10/28 02:41:30;;;;;;;38.73;23.67;;;;;;;;;;4432958;32;20243;-53
2021/10/28 02:43:56;;;;;;;50.53;24.23;;;;;;;;;;4432874;32;20318;-53
2021/10/28 02:46:22;;;;;;;50.93;26.27;;;;;;;;;;4432928;32;20641;-53
2021/10/28 02:48:47;;;;;;;48.33;26.53;;;;;;;;;;4433384;32;20287;-55
2021/10/28 02:51:13;;;;;;;50.93;27.00;;;;;;;;;;4432784;32;20212;-53
2021/10/28 02:53:38;;;;;;;51.17;27.13;;;;;;;;;;4432510;32;20276;-53
2021/10/28 02:56:04;;;;;;;50.33;28.23;;;;;;;;;;4433004;32;20740;-52
2021/10/28 02:58:30;;;;;;;56.43;30.17;;;;;;;;;;4429612;32;20310;-54
2021/10/28 03:00:55;;;;;;;60.23;29.20;;;;;;;;;;4428143;32;20283;-53
2021/10/28 03:03:21;;;;;;;60.03;29.13;;;;;;;;;;4432224;32;20362;-53
2021/10/28 03:05:46;;;;;;;59.53;29.20;;;;;;;;;;4432799;32;20298;-54
2021/10/28 03:08:11;;;;;;;46.73;25.30;;;;;;;;;;4432871;32;20548;-52
2021/10/28 03:10:37;;;;;;;55.50;24.20;;;;;;;;;;4432882;32;20280;-53
2021/10/28 03:13:02;;;;;;;57.87;26.93;;;;;;;;;;4432378;32;20283;-53
2021/10/28 03:15:34;;;;;;;51.57;26.87;;;;;;;;;;4432334;32;20753;-54
2021/10/28 03:25:59;;;;;;;48.77;25.60;;;;;;;;;;4432230;32;20220;-53
2021/10/28 03:28:24;;;;;;;45.70;27.23;;;;;;;;;;4433175;32;20279;-52
2021/10/28 03:30:50;;;;;;;51.90;26.87;;;;;;;;;;4432875;32;20283;-52
2021/10/28 03:33:19;;;;;;;44.43;26.63;;;;;;;;;;4432443;32;20287;-54
2021/10/28 03:35:47;;;;;;;50.23;26.43;;;;;;;;;;4432914;32;20447;-52
2021/10/28 03:38:24;;;;;;;44.87;24.67;;;;;;;;;;4435719;32;20295;-53
2021/10/28 04:07:29;;;;;;;51.23;27.27;;;;;;;;;;4435066;32;20232;-53
2021/10/28 04:18:39;;;;;;;71.80;35.10;;;;;;;;;;4435623;32;20223;-52
2021/10/28 04:29:03;;;;;;;59.87;33.97;;;;;;;;;;4435518;32;20269;-53
2021/10/28 04:31:32;;;;;;;63.20;33.70;;;;;;;;;;4434801;32;20793;-53
2021/10/28 04:34:04;;;;;;;71.33;35.87;;;;;;;;;;4435166;32;20246;-53
2021/10/28 04:36:30;;;;;;;69.47;34.67;;;;;;;;;;4433016;32;20249;-53
2021/10/28 04:39:00;;;;;;;82.77;35.23;;;;;;;;;;4425818;32;20231;-52
2021/10/28 04:41:27;;;;;;;61.73;34.63;;;;;;;;;;4429093;32;20344;-52
2021/10/28 04:43:53;;;;;;;69.87;38.07;;;;;;;;;;4435091;32;20715;-54
2021/10/28 04:46:19;;;;;;;67.53;37.63;;;;;;;;;;4433651;32;20296;-54
2021/10/28 04:48:44;;;;;;;70.50;36.10;;;;;;;;;;4434801;32;20396;-55
2021/10/28 04:51:10;;;;;;;74.57;39.13;;;;;;;;;;4427344;32;20251;-54
2021/10/28 04:53:36;;;;;;;78.93;39.67;;;;;;;;;;4429829;32;20289;-55
2021/10/28 04:56:01;;;;;;;84.60;40.83;;;;;;;;;;4434479;32;20280;-54
2021/10/28 04:58:26;;;;;;;85.53;44.30;;;;;;;;;;4434618;32;20284;-54
2021/10/28 05:00:52;;;;;;;119.40;60.57;;;;;;;;;;4434644;32;20318;-54
2021/10/28 05:03:18;;;;;;;109.23;56.70;;;;;;;;;;4434091;32;20715;-53
2021/10/28 05:05:44;;;;;;;112.73;58.93;;;;;;;;;;4434473;32;20281;-52
2021/10/28 05:08:09;;;;;;;119.00;58.93;;;;;;;;;;4433835;32;20621;-53
2021/10/28 05:10:35;;;;;;;123.73;56.13;;;;;;;;;;4434935;32;20284;-53
2021/10/28 05:13:00;;;;;;;109.53;57.53;;;;;;;;;;4434323;32;20217;-52
2021/10/28 05:15:26;;;;;;;114.90;57.77;;;;;;;;;;4433957;32;20375;-52
2021/10/28 05:17:51;;;;;;;111.30;58.60;;;;;;;;;;4434098;32;20334;-53
2021/10/28 05:20:17;;;;;;;104.00;56.00;;;;;;;;;;4433656;32;20805;-54
2021/10/28 05:22:42;;;;;;;101.53;56.83;;;;;;;;;;4433976;32;20205;-53
2021/10/28 05:25:08;;;;;;;105.83;55.17;;;;;;;;;;4433581;32;20362;-55
2021/10/28 05:27:34;;;;;;;108.50;52.33;;;;;;;;;;4433756;32;20340;-53
2021/10/28 05:30:00;;;;;;;63.90;38.00;;;;;;;;;;4433176;32;20275;-55
2021/10/28 05:32:26;;;;;;;69.80;37.70;;;;;;;;;;4433623;32;20228;-53
2021/10/28 05:34:58;;;;;;;95.17;53.30;;;;;;;;;;4431445;32;20289;-53
2021/10/28 05:37:23;;;;;;;89.77;53.30;;;;;;;;;;4433337;32;20307;-53
2021/10/28 05:39:49;;;;;;;105.67;55.67;;;;;;;;;;4433178;32;20409;-53
2021/10/28 05:42:14;;;;;;;117.07;60.70;;;;;;;;;;4433984;32;20220;-52
2021/10/28 05:44:40;;;;;;;94.60;55.47;;;;;;;;;;4433598;32;20284;-55
2021/10/28 05:47:05;;;;;;;105.03;54.90;;;;;;;;;;4431483;32;20249;-55
2021/10/28 05:49:32;;;;;;;130.40;65.23;;;;;;;;;;4429752;32;20635;-52
2021/10/28 05:51:58;;;;;;;136.70;66.27;;;;;;;;;;4431904;32;20723;-52
2021/10/28 05:54:23;;;;;;;163.00;79.37;;;;;;;;;;4431342;32;20301;-54
2021/10/28 05:56:48;;;;;;;123.97;64.33;;;;;;;;;;4431812;32;20232;-52
2021/10/28 05:59:14;;;;;;;111.20;60.33;;;;;;;;;;4433389;32;20815;-52
2021/10/28 06:01:40;;;;;;;93.17;49.80;;;;;;;;;;4433254;32;20302;-54
2021/10/28 06:04:06;;;;;;;110.80;56.63;;;;;;;;;;4433862;32;20294;-55
2021/10/28 06:06:32;;;;;;;97.17;54.83;;;;;;;;;;4431231;32;20299;-53
2021/10/28 06:08:58;;;;;;;70.13;35.33;;;;;;;;;;4429903;32;20528;-52
2021/10/28 06:11:23;;;;;;;74.90;44.10;;;;;;;;;;4430222;32;20267;-53
2021/10/28 06:13:49;;;;;;;65.73;33.00;;;;;;;;;;4431159;32;20307;-54
2021/10/28 06:16:15;;;;;;;64.27;38.50;;;;;;;;;;4430837;32;20229;-53
2021/10/28 06:18:41;;;;;;;94.87;49.30;;;;;;;;;;4430989;32;20709;-57
2021/10/28 06:21:09;;;;;;;101.97;52.43;;;;;;;;;;4430679;32;20229;-53
2021/10/28 06:23:35;;;;;;;74.97;44.03;;;;;;;;;;4427492;32;20356;-53
2021/10/28 06:26:01;;;;;;;71.50;38.27;;;;;;;;;;4432264;32;20292;-53
2021/10/28 06:28:26;;;;;;;76.57;43.47;;;;;;;;;;4430908;32;20734;-55
2021/10/28 06:30:52;;;;;;;78.37;40.90;;;;;;;;;;4430421;32;20314;-54
2021/10/28 06:33:21;;;;;;;92.23;50.30;;;;;;;;;;4430960;32;20387;-55
2021/10/28 06:35:47;;;;;;;91.67;43.70;;;;;;;;;;4430800;32;20650;-53
2021/10/28 06:38:14;;;;;;;88.70;45.03;;;;;;;;;;4430971;32;20280;-54
2021/10/28 06:40:40;;;;;;;91.87;53.03;;;;;;;;;;4430612;32;20282;-53
2021/10/28 06:43:06;;;;;;;82.23;47.50;;;;;;;;;;4432491;32;20250;-54
2021/10/28 06:45:32;;;;;;;78.67;45.53;;;;;;;;;;4430045;32;20209;-52
2021/10/28 06:47:58;;;;;;;78.07;46.23;;;;;;;;;;4429830;32;20706;-53
2021/10/28 06:50:29;;;;;;;81.80;50.27;;;;;;;;;;4432161;32;20391;-53
2021/10/28 06:52:57;;;;;;;91.43;43.97;;;;;;;;;;4426475;32;20320;-53
2021/10/28 07:03:26;;;;;;;170.50;100.17;;;;;;;;;;4424023;32;20367;-52
2021/10/28 07:05:52;;;;;;;157.80;95.10;;;;;;;;;;4431969;32;20201;-51
2021/10/28 07:08:18;;;;;;;164.20;94.33;;;;;;;;;;4425026;32;20341;-53
2021/10/28 07:10:45;;;;;;;136.93;81.97;;;;;;;;;;4425450;32;20295;-53
2021/10/28 07:13:20;;;;;;;148.37;89.17;;;;;;;;;;4425293;32;20275;-53
2021/10/28 07:16:12;;;;;;;123.57;71.53;;;;;;;;;;4425875;32;20258;-53
2021/10/28 07:18:47;;;;;;;112.93;65.10;;;;;;;;;;4422964;32;20225;-52
2021/10/28 07:36:42;;;;;;;61.57;35.33;;;;;;;;;;4430506;32;20350;-54
2021/10/28 07:39:44;;;;;;;53.27;33.23;;;;;;;;;;4429410;32;20208;-51
2021/10/28 08:13:30;;;;;;;36.53;22.97;;;;;;;;;;4429686;32;20259;-52
2021/10/28 08:21:58;;;;;;;22.33;12.57;;;;;;;;;;4433693;32;20254;-52
2021/10/28 08:29:37;;;;;;;30.37;18.57;;;;;;;;;;4433987;32;20737;-53
2021/10/28 08:32:05;;;;;;;33.93;16.83;;;;;;;;;;4434552;32;20287;-52
2021/10/28 08:34:34;;;;;;;28.03;16.77;;;;;;;;;;4430785;32;20280;-53
2021/10/28 08:37:12;;;;;;;22.57;14.20;;;;;;;;;;4433924;32;20225;-52
2021/10/28 08:39:51;;;;;;;19.10;13.47;;;;;;;;;;4432052;32;20380;-54
2021/10/28 08:42:19;;;;;;;26.03;13.37;;;;;;;;;;4434225;32;20232;-53
2021/10/28 08:44:50;;;;;;;20.33;13.73;;;;;;;;;;4429022;32;20300;-53
2021/10/28 08:47:17;;;;;;;23.53;13.20;;;;;;;;;;4433767;32;20229;-52
2021/10/28 08:57:40;;;;;;;122.63;64.93;;;;;;;;;;4433127;32;20323;-52
2021/10/28 09:29:11;;;;;;;22.17;14.60;;;;;;;;;;4433404;32;20255;-53
2021/10/28 09:31:49;;;;;;;23.17;14.03;;;;;;;;;;4431907;32;20278;-53
2021/10/28 09:34:31;;;;;;;21.37;15.20;;;;;;;;;;4432638;32;20296;-53
2021/10/28 09:45:49;;;;;;;24.30;15.77;;;;;;;;;;4431068;32;20268;-52
2021/10/28 09:51:03;;;;;;;28.73;16.93;;;;;;;;;;4429233;32;20291;-51
2021/10/28 09:53:42;;;;;;;30.47;16.93;;;;;;;;;;4422031;32;20599;-52
2021/10/28 09:59:06;;;;;;;20.10;15.37;;;;;;;;;;4422408;32;20219;-52
2021/10/28 10:01:42;;;;;;;33.53;23.87;;;;;;;;;;4431240;32;20268;-52
2021/10/28 10:04:08;;;;;;;25.07;16.10;;;;;;;;;;4427649;32;20223;-53
2021/10/28 10:06:40;;;;;;;19.87;15.37;;;;;;;;;;4432777;32;20902;-53
2021/10/28 10:09:06;;;;;;;19.40;13.87;;;;;;;;;;4432312;32;20204;-53
2021/10/28 10:11:33;;;;;;;19.50;13.80;;;;;;;;;;4432767;32;20322;-54
2021/10/28 10:14:00;;;;;;;17.60;12.63;;;;;;;;;;4427289;32;20646;-53
2021/10/28 10:16:26;;;;;;;20.17;10.70;;;;;;;;;;4432404;32;20221;-52
2021/10/28 10:18:51;;;;;;;28.10;17.10;;;;;;;;;;4432434;32;20318;-55
2021/10/28 10:21:33;;;;;;;24.87;15.27;;;;;;;;;;4431203;32;20593;-53
2021/10/28 11:26:24;;;;;;;11.37;7.37;;;;;;;;;;4430410;32;20724;-53
2021/10/28 13:36:17;;;;;;;8.80;6.43;;;;;;;;;;4426036;32;20707;-53
2021/10/28 14:35:46;;;;;;;13.30;7.33;;;;;;;;;;4426194;32;20284;-54
2021/10/28 15:29:47;;;;;;;29.83;16.83;;;;;;;;;;4430765;32;20228;-53
2021/10/28 15:37:54;;;;;;;51.70;28.40;;;;;;;;;;4430775;32;20557;-54
2021/10/28 15:43:39;;;;;;;44.03;22.57;;;;;;;;;;4430870;32;20288;-54
2021/10/28 16:21:47;;;;;;;74.70;43.87;;;;;;;;;;4427454;32;20285;-53
2021/10/28 16:23:16;;;;;;;53.63;26.40;;;;;;;;;;4427083;32;20253;-53
2021/10/28 16:25:42;;;;;;;49.53;28.47;;;;;;;;;;4430701;32;20299;-55
2021/10/28 16:28:08;;;;;;;50.70;29.53;;;;;;;;;;4425367;32;20202;-53
2021/10/28 16:30:34;;;;;;;44.20;24.30;;;;;;;;;;4431201;32;20729;-54
2021/10/28 16:32:59;;;;;;;52.57;30.93;;;;;;;;;;4431069;32;20213;-53
2021/10/28 16:35:25;;;;;;;56.37;31.10;;;;;;;;;;4427272;32;20314;-54
2021/10/28 16:37:51;;;;;;;43.07;26.10;;;;;;;;;;4424988;32;20581;-53
2021/10/28 16:40:17;;;;;;;45.37;25.57;;;;;;;;;;4428517;32;20589;-55
2021/10/28 16:42:42;;;;;;;55.30;30.87;;;;;;;;;;4427665;32;20217;-53
2021/10/28 16:45:08;;;;;;;52.00;30.67;;;;;;;;;;4433709;32;20352;-53
2021/10/28 16:47:35;;;;;;;60.80;33.87;;;;;;;;;;4431828;32;20267;-54
2021/10/28 16:50:00;;;;;;;65.17;35.57;;;;;;;;;;4431929;32;20283;-54
2021/10/28 16:52:26;;;;;;;65.07;37.40;;;;;;;;;;4432572;32;20600;-53
2021/10/28 16:54:52;;;;;;;59.87;36.57;;;;;;;;;;4433995;32;20300;-54
2021/10/28 16:57:17;;;;;;;65.17;33.97;;;;;;;;;;4426700;32;20256;-54
2021/10/28 16:59:43;;;;;;;63.57;35.53;;;;;;;;;;4433904;32;20394;-53
2021/10/28 17:02:08;;;;;;;64.63;35.93;;;;;;;;;;4431646;32;20297;-53
2021/10/28 17:04:34;;;;;;;65.70;36.30;;;;;;;;;;4433543;32;20364;-54
2021/10/28 17:06:59;;;;;;;58.60;34.97;;;;;;;;;;4433741;32;20212;-53
2021/10/28 17:09:25;;;;;;;56.60;34.27;;;;;;;;;;4420830;32;20283;-53
2021/10/28 17:11:51;;;;;;;52.50;30.37;;;;;;;;;;4430052;32;20808;-53
2021/10/28 17:14:16;;;;;;;42.63;25.20;;;;;;;;;;4424176;32;20288;-55
2021/10/28 17:16:47;;;;;;;46.90;27.47;;;;;;;;;;4427371;32;20260;-53
2021/10/28 17:19:14;;;;;;;46.63;25.63;;;;;;;;;;4421777;32;20704;-54
2021/10/28 17:21:39;;;;;;;41.40;24.23;;;;;;;;;;4431275;32;20225;-53
2021/10/28 17:24:08;;;;;;;45.30;26.73;;;;;;;;;;4433874;32;20716;-55
2021/10/28 17:26:34;;;;;;;47.90;28.20;;;;;;;;;;4430650;32;20317;-53
2021/10/28 17:29:02;;;;;;;54.47;32.00;;;;;;;;;;4428724;32;20662;-54
2021/10/28 17:31:32;;;;;;;65.77;35.53;;;;;;;;;;4431349;32;20296;-53
2021/10/28 17:33:57;;;;;;;65.03;36.07;;;;;;;;;;4433196;32;20225;-53
2021/10/28 17:36:24;;;;;;;60.87;33.27;;;;;;;;;;4431916;32;20239;-53
2021/10/28 17:38:50;;;;;;;71.47;36.43;;;;;;;;;;4427747;32;20620;-54
2021/10/28 17:41:17;;;;;;;68.80;41.43;;;;;;;;;;4431186;32;20247;-53
2021/10/28 17:43:45;;;;;;;75.33;40.03;;;;;;;;;;4432613;32;20396;-54
2021/10/28 17:46:13;;;;;;;68.67;40.57;;;;;;;;;;4432826;32;20308;-53
2021/10/28 17:48:38;;;;;;;118.30;56.67;;;;;;;;;;4425860;32;20245;-54
2021/10/28 17:51:04;;;;;;;126.60;58.77;;;;;;;;;;4433032;32;20271;-54
2021/10/28 17:53:30;;;;;;;87.27;48.07;;;;;;;;;;4422123;32;20392;-54
2021/10/28 17:55:55;;;;;;;81.77;43.20;;;;;;;;;;4431913;32;20645;-53
2021/10/28 17:58:21;;;;;;;90.63;44.63;;;;;;;;;;4430939;32;20294;-53
2021/10/28 18:00:46;;;;;;;84.30;44.30;;;;;;;;;;4432391;32;20724;-53
2021/10/28 18:03:12;;;;;;;81.30;42.70;;;;;;;;;;4430551;32;20338;-53
2021/10/28 18:05:39;;;;;;;74.30;40.63;;;;;;;;;;4432769;32;20789;-54
2021/10/28 18:08:07;;;;;;;70.33;40.60;;;;;;;;;;4432271;32;20378;-52
2021/10/28 18:10:33;;;;;;;81.93;42.13;;;;;;;;;;4432498;32;20281;-55
2021/10/28 18:12:58;;;;;;;79.83;40.63;;;;;;;;;;4431524;32;20252;-53
2021/10/28 18:15:26;;;;;;;84.33;44.57;;;;;;;;;;4431964;32;20330;-53
2021/10/28 18:17:51;;;;;;;77.30;39.30;;;;;;;;;;4422832;32;20593;-53
2021/10/28 18:20:17;;;;;;;76.57;40.13;;;;;;;;;;4423335;32;20267;-55
2021/10/28 18:22:46;;;;;;;71.77;38.73;;;;;;;;;;4423732;32;20528;-53
2021/10/28 18:25:12;;;;;;;66.33;35.20;;;;;;;;;;4428400;32;20251;-54
2021/10/28 18:27:39;;;;;;;57.70;32.27;;;;;;;;;;4430476;32;20221;-52
2021/10/28 18:30:09;;;;;;;41.93;24.50;;;;;;;;;;4421812;32;20405;-53
2021/10/28 18:32:34;;;;;;;35.23;23.20;;;;;;;;;;4424001;32;20319;-54
2021/10/28 18:35:00;;;;;;;34.23;20.97;;;;;;;;;;4427111;32;20332;-53
2021/10/28 18:37:25;;;;;;;45.97;22.80;;;;;;;;;;4430855;32;20744;-53
2021/10/28 18:39:51;;;;;;;33.80;18.73;;;;;;;;;;4420318;32;20364;-53
2021/10/28 18:42:18;;;;;;;44.10;20.93;;;;;;;;;;4425869;32;20247;-54
2021/10/28 18:44:44;;;;;;;51.57;29.97;;;;;;;;;;4425401;32;20309;-53
2021/10/28 18:47:09;;;;;;;49.97;28.80;;;;;;;;;;4431602;32;20831;-52
2021/10/28 18:49:35;;;;;;;57.13;27.63;;;;;;;;;;4419329;32;20289;-54
2021/10/28 18:52:02;;;;;;;58.07;30.07;;;;;;;;;;4432362;32;20240;-53
2021/10/28 18:54:28;;;;;;;56.87;30.03;;;;;;;;;;4431545;32;20594;-54
2021/10/28 18:56:54;;;;;;;73.60;31.23;;;;;;;;;;4427675;32;20247;-53
2021/10/28 18:59:19;;;;;;;76.57;37.77;;;;;;;;;;4416278;32;20238;-54
2021/10/28 19:01:48;;;;;;;91.07;45.10;;;;;;;;;;4431134;32;20457;-53
2021/10/28 19:04:14;;;;;;;87.93;54.07;;;;;;;;;;4431913;32;20208;-55
2021/10/28 19:06:41;;;;;;;96.77;51.43;;;;;;;;;;4431375;32;20488;-52
2021/10/28 19:09:06;;;;;;;84.57;47.33;;;;;;;;;;4432723;32;20644;-53
2021/10/28 19:11:32;;;;;;;81.90;43.80;;;;;;;;;;4429357;32;20300;-56
2021/10/28 19:13:57;;;;;;;87.53;47.33;;;;;;;;;;4426531;32;20276;-55
2021/10/28 19:16:23;;;;;;;99.90;53.90;;;;;;;;;;4429467;32;20338;-53
2021/10/28 19:18:49;;;;;;;89.83;48.90;;;;;;;;;;4431934;32;20307;-54
2021/10/28 19:21:15;;;;;;;86.67;48.20;;;;;;;;;;4429166;32;20627;-53
2021/10/28 19:23:41;;;;;;;95.50;49.17;;;;;;;;;;4430773;32;20280;-55
2021/10/28 19:26:08;;;;;;;86.47;50.97;;;;;;;;;;4431445;32;20742;-53
2021/10/28 19:28:33;;;;;;;121.07;58.90;;;;;;;;;;4431673;32;20213;-53
2021/10/28 19:31:03;;;;;;;105.03;56.93;;;;;;;;;;4431782;32;20379;-54
2021/10/28 19:33:38;;;;;;;106.20;55.53;;;;;;;;;;4416763;32;20566;-53
2021/10/28 19:36:08;;;;;;;102.90;56.30;;;;;;;;;;4430467;32;20339;-54
2021/10/28 19:41:15;;;;;;;119.70;61.50;;;;;;;;;;4431582;32;20418;-53
2021/10/28 19:46:25;;;;;;;115.00;60.53;;;;;;;;;;4429327;32;20318;-53
2021/10/28 19:48:51;;;;;;;110.00;58.70;;;;;;;;;;4429449;32;20268;-54
2021/10/28 19:51:17;;;;;;;120.03;69.00;;;;;;;;;;4430674;32;20229;-53
2021/10/28 19:53:43;;;;;;;121.20;65.43;;;;;;;;;;4416422;32;20387;-53
2021/10/28 19:56:12;;;;;;;125.77;65.67;;;;;;;;;;4424947;32;20225;-53
2021/10/28 19:58:46;;;;;;;130.53;67.27;;;;;;;;;;4425444;32;20673;-53
2021/10/28 20:01:23;;;;;;;131.80;66.60;;;;;;;;;;4430695;32;20332;-53
2021/10/28 20:22:14;;;;;;;103.43;50.13;;;;;;;;;;4425082;32;20271;-52
2021/10/28 20:24:40;;;;;;;92.57;44.90;;;;;;;;;;4434498;32;20379;-55
2021/10/28 20:27:05;;;;;;;92.73;49.87;;;;;;;;;;4433683;32;20233;-53
2021/10/28 20:29:31;;;;;;;87.90;48.33;;;;;;;;;;4432869;32;20276;-55
2021/10/28 20:31:57;;;;;;;73.47;41.30;;;;;;;;;;4418505;32;20624;-53
2021/10/28 20:34:29;;;;;;;84.97;43.20;;;;;;;;;;4429003;32;20279;-55
2021/10/28 20:37:10;;;;;;;113.90;49.77;;;;;;;;;;4434270;32;20287;-53
2021/10/28 20:39:42;;;;;;;98.33;50.93;;;;;;;;;;4433869;32;20322;-53
2021/10/28 20:42:09;;;;;;;88.20;45.17;;;;;;;;;;4434291;32;20507;-53
2021/10/28 20:44:34;;;;;;;156.50;65.43;;;;;;;;;;4434122;32;20244;-55
2021/10/28 20:47:00;;;;;;;116.73;53.83;;;;;;;;;;4433323;32;20208;-53
2021/10/28 20:49:26;;;;;;;89.87;45.13;;;;;;;;;;4433536;32;20275;-54
2021/10/28 20:51:52;;;;;;;98.47;50.77;;;;;;;;;;4429688;32;20529;-53
2021/10/28 20:54:21;;;;;;;83.80;42.03;;;;;;;;;;4427309;32;20216;-55
2021/10/28 20:56:47;;;;;;;66.10;36.53;;;;;;;;;;4427763;32;20288;-53
2021/10/28 20:59:12;;;;;;;61.17;32.10;;;;;;;;;;4433371;32;20338;-54
2021/10/28 21:01:37;;;;;;;61.30;32.60;;;;;;;;;;4432242;32;20331;-53
2021/10/28 21:04:03;;;;;;;68.37;33.73;;;;;;;;;;4431559;32;20212;-53
2021/10/28 21:06:29;;;;;;;60.93;33.37;;;;;;;;;;4431011;32;20263;-54
2021/10/28 21:08:57;;;;;;;63.43;32.30;;;;;;;;;;4420688;32;20406;-53
2021/10/28 21:11:23;;;;;;;58.70;32.23;;;;;;;;;;4429510;32;20229;-53
2021/10/28 21:13:49;;;;;;;63.87;36.57;;;;;;;;;;4432982;32;20291;-55
2021/10/28 21:16:15;;;;;;;66.37;34.17;;;;;;;;;;4434268;32;20672;-54
2021/10/28 21:18:41;;;;;;;73.50;38.33;;;;;;;;;;4433746;32;20322;-55
2021/10/28 21:21:07;;;;;;;79.23;39.23;;;;;;;;;;4432066;32;20216;-54
2021/10/28 21:23:32;;;;;;;69.50;35.97;;;;;;;;;;4431109;32;20228;-53
2021/10/28 21:25:58;;;;;;;72.13;39.87;;;;;;;;;;4432885;32;20358;-52
2021/10/28 21:28:23;;;;;;;95.87;46.97;;;;;;;;;;4424132;32;20743;-55
2021/10/28 21:30:49;;;;;;;95.57;47.27;;;;;;;;;;4432043;32;20352;-52
2021/10/28 21:33:15;;;;;;;76.73;41.97;;;;;;;;;;4420931;32;20289;-55
2021/10/28 21:35:42;;;;;;;92.00;43.63;;;;;;;;;;4429980;32;20233;-55
2021/10/28 21:38:07;;;;;;;100.17;45.10;;;;;;;;;;4429021;32;20197;-52
2021/10/28 21:40:33;;;;;;;84.77;47.00;;;;;;;;;;4424510;32;20704;-53
2021/10/28 21:42:59;;;;;;;81.10;46.13;;;;;;;;;;4427497;32;20691;-52
2021/10/28 21:45:25;;;;;;;81.30;42.60;;;;;;;;;;4432433;32;20313;-52
2021/10/28 21:47:51;;;;;;;88.07;43.13;;;;;;;;;;4432460;32;20245;-53
2021/10/28 21:50:19;;;;;;;71.93;39.93;;;;;;;;;;4431716;32;20360;-53
2021/10/28 21:52:49;;;;;;;74.43;41.47;;;;;;;;;;4424755;32;20225;-52
2021/10/28 22:25:06;;;;;;;55.53;27.53;;;;;;;;;;4426997;32;20305;-53
2021/10/28 22:27:33;;;;;;;65.37;30.70;;;;;;;;;;4423395;32;20338;-53
2021/10/28 22:29:59;;;;;;;67.73;32.33;;;;;;;;;;4431865;32;20213;-53
2021/10/28 22:32:27;;;;;;;65.97;31.30;;;;;;;;;;4429559;32;20317;-52
2021/10/28 22:34:52;;;;;;;61.67;30.87;;;;;;;;;;4428794;32;20275;-53
2021/10/28 22:42:32;;;;;;;66.43;32.50;;;;;;;;;;4429507;32;20745;-56
2021/10/28 22:44:58;;;;;;;69.97;37.03;;;;;;;;;;4431929;32;20245;-55
2021/10/28 22:47:24;;;;;;;85.87;41.07;;;;;;;;;;4424536;32;20250;-54
2021/10/28 22:49:52;;;;;;;92.97;43.43;;;;;;;;;;4430663;32;20351;-54
2021/10/28 22:52:23;;;;;;;107.10;49.73;;;;;;;;;;4429295;32;20237;-54
2021/10/28 22:54:50;;;;;;;95.50;44.37;;;;;;;;;;4431741;32;20294;-54
2021/10/28 22:57:41;;;;;;;88.80;44.07;;;;;;;;;;4429628;32;20284;-54
2021/10/28 23:00:13;;;;;;;76.43;38.40;;;;;;;;;;4430351;32;20192;-53
2021/10/28 23:03:03;;;;;;;88.57;41.30;;;;;;;;;;4431202;32;20664;-53
2021/10/28 23:13:50;;;;;;;75.63;36.60;;;;;;;;;;4431751;32;20248;-53
2021/10/28 23:21:23;;;;;;;79.87;41.20;;;;;;;;;;4431894;32;20247;-53
2021/10/28 23:23:49;;;;;;;81.53;37.73;;;;;;;;;;4430946;32;20292;-53
2021/10/28 23:26:14;;;;;;;65.03;33.33;;;;;;;;;;4431505;32;20539;-53
2021/10/28 23:28:39;;;;;;;69.90;32.70;;;;;;;;;;4432550;32;20715;-54
2021/10/28 23:31:05;;;;;;;59.77;32.07;;;;;;;;;;4431840;32;20286;-54
2021/10/28 23:33:30;;;;;;;74.57;35.13;;;;;;;;;;4431734;32;20666;-54
2021/10/28 23:35:56;;;;;;;75.50;37.60;;;;;;;;;;4431460;32;20260;-54
2021/10/28 23:38:21;;;;;;;78.23;37.07;;;;;;;;;;4432301;32;20943;-53
2021/10/28 23:40:47;;;;;;;89.20;41.83;;;;;;;;;;4432100;32;20291;-54
2021/10/28 23:43:13;;;;;;;81.87;38.30;;;;;;;;;;4432111;32;20739;-53
2021/10/28 23:45:38;;;;;;;72.67;38.10;;;;;;;;;;4430864;32;20272;-55
2021/10/28 23:48:05;;;;;;;74.93;35.63;;;;;;;;;;4432139;32;20232;-53
2021/10/28 23:50:31;;;;;;;82.30;40.93;;;;;;;;;;4432062;32;20708;-54
2021/10/28 23:52:57;;;;;;;80.27;43.43;;;;;;;;;;4434996;32;20562;-53
2021/10/28 23:55:22;;;;;;;90.67;45.27;;;;;;;;;;4434439;32;20358;-54
2021/10/28 23:57:48;;;;;;;84.27;42.93;;;;;;;;;;4434872;32;20247;-53
